createdAt,value
2023-01-25T00:01:08.799Z,16.65
2023-01-25T00:06:13.541Z,20.65
2023-01-25T00:16:25.248Z,18.90
2023-01-25T00:21:30.141Z,13.48
2023-01-25T00:26:37.081Z,12.98
2023-01-25T00:31:56.639Z,12.75
2023-01-25T00:37:13.624Z,13.23
2023-01-25T00:42:20.934Z,13.02
2023-01-25T00:47:25.458Z,12.70
2023-01-25T00:52:30.021Z,12.40
2023-01-25T00:57:35.919Z,15.93
2023-01-25T01:02:40.804Z,13.05
2023-01-25T01:07:45.287Z,13.73
2023-01-25T01:17:57.335Z,14.82
2023-01-25T01:23:01.785Z,19.08
2023-01-25T01:28:07.877Z,14.25
2023-01-25T01:33:12.453Z,14.10
2023-01-25T01:38:16.945Z,13.60
2023-01-25T01:43:25.537Z,11.52
2023-01-25T01:48:39.349Z,12.05
2023-01-25T01:53:51.092Z,11.73
2023-01-25T01:58:59.348Z,12.93
2023-01-25T02:04:06.542Z,11.30
2023-01-25T02:09:13.396Z,11.38
2023-01-25T02:14:20.088Z,11.50
2023-01-25T02:19:39.478Z,11.98
2023-01-25T02:24:51.920Z,11.77
2023-01-25T02:29:58.209Z,16.52
2023-01-25T02:35:02.672Z,10.55
2023-01-25T02:40:08.932Z,13.38
2023-01-25T02:45:20.647Z,15.18
2023-01-25T02:50:25.200Z,15.55
2023-01-25T02:55:30.577Z,16.80
2023-01-25T03:05:41.207Z,14.50
2023-01-25T03:10:45.833Z,16.67
2023-01-25T03:15:51.993Z,18.95
2023-01-25T03:20:57.104Z,13.27
2023-01-25T03:26:13.531Z,20.67
2023-01-25T03:31:34.386Z,23.55
2023-01-25T03:36:39.274Z,14.90
2023-01-25T03:41:43.833Z,17.08
2023-01-25T03:46:52.247Z,19.52
2023-01-25T03:51:58.736Z,17.25
2023-01-25T03:57:12.994Z,19.95
2023-01-25T04:02:28.318Z,18.05
2023-01-25T04:07:34.007Z,18.83
2023-01-25T04:12:39.437Z,19.23
2023-01-25T04:17:45.454Z,21.00
2023-01-25T04:22:58.014Z,25.23
2023-01-25T04:28:09.083Z,27.73
2023-01-25T04:33:14.910Z,27.45
2023-01-25T04:38:21.095Z,24.40
2023-01-25T04:43:26.452Z,24.65
2023-01-25T04:48:37.426Z,23.98
2023-01-25T04:53:44.889Z,18.42
2023-01-25T04:58:49.726Z,18.77
2023-01-25T05:03:55.701Z,22.85
2023-01-25T05:09:08.748Z,19.75
2023-01-25T05:14:13.411Z,18.92
2023-01-25T05:19:21.102Z,20.95
2023-01-25T05:24:37.292Z,22.05
2023-01-25T05:29:46.372Z,19.63
2023-01-25T05:34:52.770Z,17.98
2023-01-25T05:39:58.065Z,23.77
2023-01-25T05:45:03.295Z,22.08
2023-01-25T05:50:11.708Z,19.23
2023-01-25T05:55:39.662Z,20.40
2023-01-25T06:00:47.702Z,23.52
2023-01-25T06:06:05.055Z,21.70
2023-01-25T06:11:12.151Z,22.73
2023-01-25T06:16:21.614Z,17.73
2023-01-25T06:21:39.160Z,18.88
2023-01-25T06:26:43.679Z,21.73
2023-01-25T06:31:48.145Z,33.90
2023-01-25T06:36:53.979Z,41.78
2023-01-25T06:41:58.393Z,67.40
2023-01-25T06:47:03.101Z,46.30
2023-01-25T06:52:08.969Z,54.17
2023-01-25T06:57:13.734Z,41.63
2023-01-25T07:02:18.283Z,38.92
2023-01-25T07:07:24.099Z,45.30
2023-01-25T07:12:30.110Z,33.78
2023-01-25T07:17:34.635Z,37.50
2023-01-25T07:22:40.398Z,36.80
2023-01-25T07:27:44.924Z,32.10
2023-01-25T07:32:49.433Z,37.17
2023-01-25T07:37:57.284Z,24.30
2023-01-25T07:43:01.882Z,23.73
2023-01-25T07:48:11.651Z,29.00
2023-01-25T07:53:17.279Z,20.75
2023-01-25T07:58:21.936Z,19.48
2023-01-25T08:03:26.318Z,19.40
2023-01-25T08:13:38.446Z,23.92
2023-01-25T08:18:42.961Z,22.83
2023-01-25T08:23:48.898Z,22.92
2023-01-25T08:28:53.978Z,30.40
2023-01-25T08:33:59.349Z,23.70
2023-01-25T08:39:09.072Z,46.20
2023-01-25T08:44:13.491Z,44.05
2023-01-25T08:49:18.131Z,46.08
2023-01-25T08:54:24.667Z,51.53
2023-01-25T08:59:29.243Z,45.45
2023-01-25T09:04:33.948Z,48.20
2023-01-25T09:09:39.559Z,53.13
2023-01-25T09:14:44.234Z,55.47
2023-01-25T09:25:00.113Z,50.67
2023-01-25T09:30:10.898Z,52.10
2023-01-25T09:35:18.773Z,52.55
2023-01-25T09:40:29.889Z,60.58
2023-01-25T09:45:35.823Z,52.28
2023-01-25T09:51:01.299Z,45.28
2023-01-25T09:56:18.752Z,47.00
2023-01-25T10:01:39.027Z,41.17
2023-01-25T10:06:58.934Z,43.88
2023-01-25T10:12:16.547Z,45.05
2023-01-25T10:17:31.137Z,40.58
2023-01-25T10:22:44.692Z,46.20
2023-01-25T10:28:25.792Z,44.17
2023-01-25T10:33:36.023Z,46.50
2023-01-25T10:38:44.306Z,38.80
2023-01-25T10:44:10.043Z,37.65
2023-01-25T10:49:24.641Z,37.63
2023-01-25T10:54:30.232Z,37.58
2023-01-25T10:59:38.161Z,38.65
2023-01-25T11:04:47.198Z,25.88
2023-01-25T11:09:51.928Z,29.73
2023-01-25T11:14:57.961Z,25.23
2023-01-25T11:20:20.960Z,23.20
2023-01-25T11:25:33.862Z,25.88
2023-01-25T11:30:39.879Z,28.77
2023-01-25T11:36:10.304Z,32.83
2023-01-25T11:41:30.796Z,34.22
2023-01-25T11:46:55.623Z,34.92
2023-01-25T11:52:16.419Z,53.47
2023-01-25T11:57:50.755Z,44.08
2023-01-25T12:03:43.496Z,39.40
2023-01-25T12:09:16.657Z,45.60
2023-01-25T12:14:35.981Z,39.70
2023-01-25T12:20:22.989Z,38.72
2023-01-25T12:25:42.288Z,41.47
2023-01-25T12:31:04.953Z,41.88
2023-01-25T12:36:19.058Z,49.42
2023-01-25T12:41:37.087Z,44.63
2023-01-25T12:46:49.605Z,43.00
2023-01-25T12:51:57.508Z,44.28
2023-01-25T12:57:17.536Z,64.13
2023-01-25T13:02:51.772Z,39.75
2023-01-25T13:08:08.016Z,29.55
2023-01-25T13:13:26.392Z,34.55
2023-01-25T13:18:41.558Z,39.00
2023-01-25T13:23:47.937Z,35.80
2023-01-25T13:28:55.303Z,38.35
2023-01-25T13:34:00.352Z,43.53
2023-01-25T13:39:45.145Z,36.50
2023-01-25T13:44:54.014Z,32.58
2023-01-25T13:50:05.376Z,35.00
2023-01-25T13:55:19.630Z,50.72
2023-01-25T14:00:26.302Z,63.95
2023-01-25T14:05:30.701Z,76.80
2023-01-25T14:10:36.120Z,29.33
2023-01-25T14:15:43.040Z,40.85
2023-01-25T14:20:49.932Z,53.63
2023-01-25T14:25:56.152Z,32.83
2023-01-25T14:31:02.516Z,30.65
2023-01-25T14:36:24.184Z,31.75
2023-01-25T14:41:34.093Z,33.13
2023-01-25T14:46:42.049Z,30.73
2023-01-25T14:51:50.124Z,32.65
2023-01-25T14:56:57.344Z,31.45
2023-01-25T15:02:17.018Z,40.00
2023-01-25T15:07:37.459Z,40.72
2023-01-25T15:12:42.127Z,37.10
2023-01-25T15:17:50.900Z,33.63
2023-01-25T15:22:56.086Z,58.65
2023-01-25T15:28:00.471Z,85.80
2023-01-25T15:33:06.964Z,59.63
2023-01-25T15:38:12.402Z,45.22
2023-01-25T15:43:19.556Z,46.13
2023-01-25T15:48:31.609Z,44.65
2023-01-25T15:53:36.450Z,40.67
2023-01-25T15:58:44.161Z,40.65
2023-01-25T16:03:50.239Z,38.00
2023-01-25T16:08:54.551Z,38.15
2023-01-25T16:13:59.058Z,35.05
2023-01-25T16:19:04.931Z,39.50
2023-01-25T16:24:10.495Z,39.00
2023-01-25T16:29:15.180Z,43.25
2023-01-25T16:34:21.994Z,41.22
2023-01-25T16:39:28.503Z,36.63
2023-01-25T16:44:33.181Z,35.03
2023-01-25T16:49:39.058Z,35.78
2023-01-25T16:54:43.366Z,39.63
2023-01-25T16:59:47.572Z,36.67
2023-01-25T17:04:53.617Z,47.70
2023-01-25T17:09:58.070Z,45.83
2023-01-25T17:15:02.876Z,46.85
2023-01-25T17:20:11.692Z,53.00
2023-01-25T17:25:16.515Z,54.53
2023-01-25T17:30:21.162Z,42.45
2023-01-25T17:35:27.083Z,52.20
2023-01-25T17:40:31.547Z,55.10
2023-01-25T17:45:39.467Z,53.67
2023-01-25T17:50:45.403Z,48.13
2023-01-25T17:55:49.895Z,52.22
2023-01-25T18:01:02.153Z,53.03
2023-01-25T18:06:20.419Z,50.47
2023-01-25T18:11:27.385Z,44.72
2023-01-25T18:16:33.619Z,49.95
2023-01-25T18:21:41.938Z,44.65
2023-01-25T18:26:47.308Z,49.10
2023-01-25T18:42:04.452Z,51.50
2023-01-25T18:47:13.810Z,55.55
2023-01-25T18:52:22.123Z,50.22
2023-01-25T18:57:26.539Z,50.35
2023-01-25T19:02:30.988Z,50.00
2023-01-25T19:12:41.368Z,62.53
2023-01-25T19:17:45.761Z,68.43
2023-01-25T19:22:55.561Z,61.75
2023-01-25T19:28:00.669Z,64.57
2023-01-25T19:38:11.333Z,67.80
2023-01-25T19:43:15.527Z,77.70
2023-01-25T19:48:20.039Z,65.63
2023-01-25T19:53:25.617Z,50.08
2023-01-25T19:58:31.328Z,44.97
2023-01-25T20:03:36.132Z,38.85
2023-01-25T20:08:44.848Z,28.70
2023-01-25T20:13:50.672Z,36.08
2023-01-25T20:18:57.681Z,32.53
2023-01-25T20:24:07.642Z,30.27
2023-01-25T20:29:14.721Z,29.60
2023-01-25T20:34:22.474Z,30.98
2023-01-25T20:39:28.044Z,32.88
2023-01-25T20:44:32.964Z,29.33
2023-01-25T20:49:38.457Z,30.33
2023-01-25T20:54:44.294Z,23.88
2023-01-25T20:59:49.049Z,21.15
2023-01-25T21:09:59.115Z,19.00
2023-01-25T21:15:03.693Z,22.75
2023-01-25T21:20:10.136Z,24.67
2023-01-25T21:25:15.961Z,22.10
2023-01-25T21:30:22.467Z,21.95
2023-01-25T21:35:29.683Z,33.08
2023-01-25T21:40:35.609Z,20.10
2023-01-25T21:45:57.544Z,22.10
2023-01-25T21:51:19.225Z,21.10
2023-01-25T21:56:24.846Z,24.55
2023-01-25T22:01:29.856Z,21.88
2023-01-25T22:06:34.624Z,28.35
2023-01-25T22:16:44.615Z,31.33
2023-01-25T22:21:49.302Z,25.48
2023-01-25T22:27:05.559Z,20.80
2023-01-25T22:32:10.408Z,25.77
2023-01-25T22:37:14.678Z,21.40
2023-01-25T22:42:20.595Z,25.98
2023-01-25T22:47:25.175Z,30.00
2023-01-25T22:52:29.649Z,23.17
2023-01-25T23:02:40.019Z,25.00
2023-01-25T23:07:44.731Z,26.13
2023-01-25T23:12:50.620Z,25.50
2023-01-25T23:18:12.143Z,25.77
2023-01-25T23:23:16.354Z,22.23
2023-01-25T23:28:22.340Z,23.80
2023-01-25T23:33:26.834Z,23.95
2023-01-25T23:38:31.433Z,25.00
2023-01-25T23:43:38.235Z,26.90
2023-01-25T23:48:43.529Z,21.80
2023-01-25T23:53:48.723Z,27.90
2023-01-25T23:58:54.571Z,26.75
